Time;durP1;ratioP1;P1;durP2;ratioP2;P2;SDS_P1;SDS_P2;PMS_P1;PMS_P2;Temp;Humidity;BMP_temperature;BMP_pressure;BME280_temperature;BME280_humidity;BME280_pressure;Samples;Min_cycle;Max_cycle;Signal;HPM_P1;HPM_P2
2021/03/18 00:00:48;;;;;;;10.60;5.13;;;4.60;92.20;;;;;;5057436;28;20034;-77
2021/03/18 00:03:14;;;;;;;8.88;5.40;;;4.60;92.30;;;;;;5035402;28;20371;-78
2021/03/18 00:05:40;;;;;;;9.65;6.15;;;4.50;92.30;;;;;;5061121;28;20037;-77
2021/03/18 00:08:06;;;;;;;8.32;5.30;;;4.50;92.30;;;;;;5052982;28;20017;-78
2021/03/18 00:10:31;;;;;;;11.05;6.38;;;4.50;92.30;;;;;;5052748;28;20025;-79
2021/03/18 00:12:57;;;;;;;10.60;5.72;;;4.50;92.30;;;;;;5053404;28;20028;-79
2021/03/18 00:15:23;;;;;;;7.60;4.85;;;4.50;92.30;;;;;;5062325;28;20031;-78
2021/03/18 00:17:49;;;;;;;8.23;5.20;;;4.50;92.30;;;;;;5053246;28;20458;-78
2021/03/18 00:20:16;;;;;;;9.13;5.05;;;4.50;92.40;;;;;;5068509;28;20044;-79
2021/03/18 00:22:42;;;;;;;8.45;4.95;;;4.50;92.40;;;;;;5070017;28;20021;-80
2021/03/18 00:25:11;;;;;;;10.35;5.25;;;4.50;92.50;;;;;;5063208;28;20381;-80
2021/03/18 00:27:37;;;;;;;8.25;4.45;;;4.50;92.50;;;;;;5053188;28;20025;-80
2021/03/18 00:30:05;;;;;;;7.45;4.90;;;4.50;92.50;;;;;;5067010;28;20024;-80
2021/03/18 00:32:31;;;;;;;8.60;5.20;;;4.60;92.50;;;;;;5072107;28;20074;-78
2021/03/18 00:34:57;;;;;;;7.97;4.55;;;4.60;92.40;;;;;;5066394;28;20496;-79
2021/03/18 00:37:23;;;;;;;7.05;4.78;;;4.60;92.40;;;;;;5073196;28;20056;-79
2021/03/18 00:39:48;;;;;;;8.00;5.15;;;4.60;92.40;;;;;;5051445;28;20441;-75
2021/03/18 00:42:14;;;;;;;7.68;4.38;;;4.60;92.50;;;;;;5052997;28;20029;-75
2021/03/18 00:44:39;;;;;;;8.13;4.60;;;4.60;92.50;;;;;;5049163;28;20025;-75
2021/03/18 00:47:05;;;;;;;9.20;4.85;;;4.60;92.50;;;;;;5047611;28;20032;-75
2021/03/18 00:49:30;;;;;;;7.40;5.00;;;4.60;92.50;;;;;;5062412;28;20076;-79
2021/03/18 00:51:55;;;;;;;10.13;4.60;;;4.60;92.50;;;;;;5058483;28;20091;-80
2021/03/18 00:54:21;;;;;;;9.45;5.05;;;4.60;92.50;;;;;;5045568;28;20489;-78
2021/03/18 00:56:47;;;;;;;9.35;4.97;;;4.60;92.60;;;;;;5052523;28;20116;-79
2021/03/18 00:59:13;;;;;;;10.45;5.13;;;4.60;92.60;;;;;;5050463;28;20382;-79
2021/03/18 01:01:39;;;;;;;7.43;4.75;;;4.60;92.70;;;;;;5052733;28;20076;-79
2021/03/18 01:04:05;;;;;;;8.73;5.35;;;4.60;92.70;;;;;;5043332;28;20541;-78
2021/03/18 01:06:31;;;;;;;8.15;5.05;;;4.60;92.70;;;;;;5051095;28;20036;-79
2021/03/18 01:08:59;;;;;;;8.48;5.10;;;4.60;92.70;;;;;;5055426;28;20100;-79
2021/03/18 01:11:29;;;;;;;9.60;5.07;;;4.60;92.70;;;;;;5034848;28;20091;-78
2021/03/18 01:13:59;;;;;;;8.25;5.03;;;4.60;92.80;;;;;;5039598;28;20385;-79
2021/03/18 01:16:33;;;;;;;7.60;4.82;;;4.60;92.80;;;;;;5032546;28;20486;-79
2021/03/18 01:19:01;;;;;;;7.70;4.88;;;4.70;92.80;;;;;;5038024;28;20048;-80
2021/03/18 01:21:31;;;;;;;10.40;5.40;;;4.70;92.80;;;;;;5051910;28;20040;-80
2021/03/18 01:23:58;;;;;;;10.38;5.13;;;4.70;92.80;;;;;;5051587;28;20386;-78
2021/03/18 01:26:23;;;;;;;10.68;6.18;;;4.70;93.00;;;;;;5050976;28;20083;-78
2021/03/18 01:28:48;;;;;;;12.13;5.65;;;4.80;92.80;;;;;;5048244;28;20028;-79
2021/03/18 01:31:14;;;;;;;8.90;5.00;;;4.80;92.80;;;;;;5050401;28;20059;-78
2021/03/18 01:33:40;;;;;;;8.45;5.00;;;4.80;92.80;;;;;;5050961;28;20017;-79
2021/03/18 01:36:13;;;;;;;8.07;4.85;;;4.80;92.80;;;;;;5052056;28;20044;-78
2021/03/18 01:38:43;;;;;;;8.45;4.65;;;4.90;92.80;;;;;;5049850;28;20448;-78
2021/03/18 01:41:09;;;;;;;9.18;4.90;;;4.90;92.80;;;;;;5032476;28;20032;-78
2021/03/18 01:43:35;;;;;;;8.95;4.63;;;4.90;92.80;;;;;;5050880;28;20024;-79
2021/03/18 01:46:00;;;;;;;8.38;4.70;;;4.90;92.80;;;;;;5071801;28;20035;-79
2021/03/18 01:48:26;;;;;;;9.57;4.20;;;4.90;92.90;;;;;;5055169;28;20041;-78
2021/03/18 01:50:52;;;;;;;8.52;4.68;;;4.90;92.90;;;;;;5060076;28;20112;-79
2021/03/18 01:53:23;;;;;;;8.40;4.85;;;4.90;92.90;;;;;;5047011;28;20131;-78
2021/03/18 01:55:51;;;;;;;10.50;5.15;;;5.00;93.00;;;;;;5031644;28;20033;-79
2021/03/18 01:58:17;;;;;;;7.47;5.35;;;5.00;92.90;;;;;;5049748;28;20059;-78
2021/03/18 02:00:45;;;;;;;11.57;5.85;;;5.00;92.90;;;;;;5051558;28;20033;-80
2021/03/18 02:03:11;;;;;;;9.68;5.15;;;5.00;92.90;;;;;;5049226;28;20037;-79
2021/03/18 02:05:36;;;;;;;8.25;5.18;;;5.00;92.90;;;;;;5031774;28;20133;-78
2021/03/18 02:08:03;;;;;;;8.65;5.72;;;5.10;92.90;;;;;;5034687;28;20047;-79
2021/03/18 02:10:31;;;;;;;8.63;5.07;;;5.10;92.80;;;;;;5050200;28;20033;-79
2021/03/18 02:12:57;;;;;;;8.15;5.22;;;5.10;92.80;;;;;;5051574;28;20025;-79
2021/03/18 02:15:30;;;;;;;9.40;5.22;;;5.10;92.80;;;;;;5061570;28;20079;-80
2021/03/18 02:18:15;;;;;;;9.27;5.03;;;5.10;92.70;;;;;;5051188;28;20029;-78
2021/03/18 02:21:01;;;;;;;10.35;5.10;;;5.20;92.80;;;;;;5053013;28;20166;-80
2021/03/18 02:24:04;;;;;;;9.50;5.72;;;5.20;92.70;;;;;;5051009;28;20105;-82
2021/03/18 02:27:05;;;;;;;8.40;5.05;;;5.20;92.70;;;;;;5048524;28;20042;-80
2021/03/18 02:30:10;;;;;;;9.57;4.82;;;5.20;92.70;;;;;;5039216;28;20037;-78
2021/03/18 02:33:06;;;;;;;8.13;5.15;;;5.20;92.70;;;;;;5043215;28;20025;-75
2021/03/18 02:35:44;;;;;;;8.10;5.38;;;5.20;92.60;;;;;;5069046;28;20028;-78
2021/03/18 02:38:15;;;;;;;9.93;5.63;;;5.20;92.70;;;;;;5064655;28;20033;-80
2021/03/18 02:40:50;;;;;;;7.90;5.10;;;5.30;92.70;;;;;;5071657;28;20082;-80
2021/03/18 02:43:19;;;;;;;7.63;4.90;;;5.30;92.70;;;;;;5050447;28;20033;-80
2021/03/18 02:45:50;;;;;;;9.05;5.32;;;5.30;92.70;;;;;;5051074;28;20104;-80
2021/03/18 02:48:21;;;;;;;9.80;5.60;;;5.30;92.70;;;;;;5051095;28;20029;-80
2021/03/18 02:50:49;;;;;;;7.97;5.50;;;5.30;92.70;;;;;;5048634;28;20060;-79
2021/03/18 02:53:17;;;;;;;9.52;5.18;;;5.40;92.60;;;;;;5049341;28;20055;-81
2021/03/18 02:55:45;;;;;;;7.68;5.22;;;5.40;92.70;;;;;;5059538;28;20119;-81
2021/03/18 02:58:14;;;;;;;5.65;4.10;;;5.40;92.60;;;;;;5051034;28;20060;-81
2021/03/18 03:00:42;;;;;;;8.32;4.63;;;5.40;92.50;;;;;;5050084;28;20097;-80
2021/03/18 03:03:08;;;;;;;6.30;4.38;;;5.40;92.40;;;;;;5051309;28;20538;-80
2021/03/18 03:05:34;;;;;;;7.93;4.00;;;5.50;92.30;;;;;;5052557;28;20036;-80
2021/03/18 03:08:03;;;;;;;8.27;4.65;;;5.50;92.20;;;;;;5071096;28;20032;-81
2021/03/18 03:10:30;;;;;;;8.35;4.63;;;5.50;92.10;;;;;;5066421;28;20038;-80
2021/03/18 03:12:57;;;;;;;6.57;4.10;;;5.60;92.10;;;;;;5071503;28;20031;-80
2021/03/18 03:15:24;;;;;;;9.55;4.72;;;5.60;92.10;;;;;;5056242;28;20032;-82
2021/03/18 03:17:50;;;;;;;7.65;4.43;;;5.60;92.00;;;;;;5051055;28;20041;-80
2021/03/18 03:20:18;;;;;;;8.45;5.28;;;5.60;92.00;;;;;;5048690;28;20040;-80
2021/03/18 03:22:45;;;;;;;7.95;4.93;;;5.60;92.00;;;;;;5057150;28;20059;-79
2021/03/18 03:25:13;;;;;;;11.48;5.30;;;5.60;91.90;;;;;;5050360;28;20029;-80
2021/03/18 03:27:41;;;;;;;8.70;4.88;;;5.60;91.80;;;;;;5052645;28;20032;-80
2021/03/18 03:30:08;;;;;;;10.15;4.95;;;5.60;92.00;;;;;;5056424;28;20481;-80
2021/03/18 03:32:34;;;;;;;8.32;4.45;;;5.60;91.70;;;;;;5072416;28;20054;-80
2021/03/18 03:35:01;;;;;;;9.35;4.68;;;5.50;91.70;;;;;;5053417;28;20074;-80
2021/03/18 03:37:27;;;;;;;7.45;4.70;;;5.60;91.70;;;;;;5053846;28;20029;-81
2021/03/18 03:39:53;;;;;;;7.63;4.10;;;5.50;91.70;;;;;;5053992;28;20554;-81
2021/03/18 03:42:18;;;;;;;7.35;4.20;;;5.50;91.70;;;;;;5072586;28;20031;-81
2021/03/18 03:44:44;;;;;;;7.53;4.70;;;5.50;91.70;;;;;;5051351;28;20059;-80
2021/03/18 03:47:10;;;;;;;7.30;4.43;;;5.40;91.80;;;;;;5060158;28;20032;-81
2021/03/18 03:49:37;;;;;;;6.80;4.35;;;5.30;91.80;;;;;;5053387;28;20091;-81
2021/03/18 03:52:28;;;;;;;6.43;4.18;;;5.30;91.90;;;;;;5072728;28;20055;-81
2021/03/18 03:55:08;;;;;;;7.30;3.88;;;5.30;91.90;;;;;;5043624;28;20059;-81
2021/03/18 03:57:48;;;;;;;5.32;3.83;;;5.30;91.80;;;;;;5044389;28;20049;-82
2021/03/18 04:00:14;;;;;;;7.50;4.30;;;5.40;91.80;;;;;;5043686;28;20102;-80
2021/03/18 04:02:42;;;;;;;7.13;4.22;;;5.30;91.90;;;;;;5063512;28;20028;-80
2021/03/18 04:05:10;;;;;;;7.60;4.13;;;5.30;91.90;;;;;;5070598;28;20029;-80
2021/03/18 04:07:37;;;;;;;8.18;4.45;;;5.30;91.90;;;;;;5056524;28;20039;-82
2021/03/18 04:10:04;;;;;;;7.60;4.13;;;5.30;91.90;;;;;;5053418;28;20396;-82
2021/03/18 04:12:36;;;;;;;6.35;4.38;;;5.30;91.90;;;;;;5053655;28;20037;-81
2021/03/18 04:15:06;;;;;;;8.10;4.18;;;5.30;92.00;;;;;;5052474;28;20650;-81
2021/03/18 04:17:33;;;;;;;6.68;4.35;;;5.30;92.10;;;;;;5054187;28;20021;-81
2021/03/18 04:20:03;;;;;;;5.95;4.10;;;5.30;92.00;;;;;;5054286;28;20037;-81
2021/03/18 04:22:31;;;;;;;6.82;4.13;;;5.30;92.10;;;;;;5039773;28;20029;-80
2021/03/18 04:24:58;;;;;;;8.85;4.82;;;5.20;92.10;;;;;;5043911;28;20398;-80
2021/03/18 04:27:24;;;;;;;6.80;4.30;;;5.20;92.10;;;;;;5053467;28;20025;-79
2021/03/18 04:29:51;;;;;;;9.90;5.70;;;5.20;92.40;;;;;;5048725;28;20065;-80
2021/03/18 04:32:17;;;;;;;6.75;4.63;;;5.20;92.20;;;;;;5052450;28;20115;-80
2021/03/18 04:34:43;;;;;;;9.32;5.45;;;5.20;92.30;;;;;;5050268;28;20033;-80
2021/03/18 04:37:10;;;;;;;8.35;5.10;;;5.20;92.30;;;;;;5052793;28;20380;-81
2021/03/18 04:39:38;;;;;;;8.48;5.85;;;5.20;92.30;;;;;;5052694;28;20037;-79
2021/03/18 04:42:06;;;;;;;9.77;5.90;;;5.20;92.40;;;;;;5067198;28;20129;-79
2021/03/18 04:44:32;;;;;;;9.45;5.50;;;5.20;92.40;;;;;;5054642;28;20037;-79
2021/03/18 04:47:00;;;;;;;10.05;6.63;;;5.10;92.40;;;;;;5048391;28;20043;-79
2021/03/18 04:49:26;;;;;;;10.35;6.50;;;5.20;92.50;;;;;;5051599;28;20033;-79
2021/03/18 04:51:52;;;;;;;10.35;5.72;;;5.20;92.50;;;;;;5065913;28;20029;-79
2021/03/18 04:54:18;;;;;;;11.63;6.65;;;5.20;92.50;;;;;;5053126;28;20389;-80
2021/03/18 04:56:45;;;;;;;9.77;6.45;;;5.20;92.60;;;;;;5056280;28;20087;-80
2021/03/18 04:59:13;;;;;;;12.55;7.05;;;5.20;92.50;;;;;;5052582;28;20151;-79
2021/03/18 05:01:42;;;;;;;12.95;7.35;;;5.30;92.50;;;;;;5067160;28;20032;-79
2021/03/18 05:04:09;;;;;;;14.02;7.45;;;5.30;92.50;;;;;;5072640;28;20101;-79
2021/03/18 05:06:35;;;;;;;14.00;7.78;;;5.30;92.50;;;;;;5066337;28;20056;-78
2021/03/18 05:09:02;;;;;;;14.07;8.27;;;5.30;92.50;;;;;;5052833;28;20501;-81
2021/03/18 05:11:28;;;;;;;15.07;8.55;;;5.40;92.40;;;;;;5051218;28;20381;-81
2021/03/18 05:13:54;;;;;;;13.13;8.45;;;5.40;92.40;;;;;;5033732;28;20034;-81
2021/03/18 05:16:21;;;;;;;16.08;9.43;;;5.40;92.40;;;;;;5058601;28;20032;-81
2021/03/18 05:18:48;;;;;;;14.57;8.80;;;5.50;92.40;;;;;;5053529;28;20096;-76
2021/03/18 05:21:14;;;;;;;13.45;8.25;;;5.50;92.40;;;;;;5062446;28;20480;-81
2021/03/18 05:23:40;;;;;;;17.85;9.48;;;5.50;92.30;;;;;;5050806;28;20028;-81
2021/03/18 05:26:06;;;;;;;19.30;9.63;;;5.50;92.30;;;;;;5046001;28;20026;-81
2021/03/18 05:28:32;;;;;;;17.00;9.85;;;5.50;92.30;;;;;;5037629;28;20032;-79
2021/03/18 05:30:57;;;;;;;17.15;9.30;;;5.50;92.30;;;;;;5059608;28;20041;-79
2021/03/18 05:33:23;;;;;;;15.90;9.35;;;5.50;92.30;;;;;;5052038;28;20051;-79
2021/03/18 05:35:48;;;;;;;14.88;8.68;;;5.60;92.30;;;;;;5059288;28;20024;-79
2021/03/18 05:38:15;;;;;;;16.80;10.07;;;5.60;92.30;;;;;;5037085;28;20052;-79
2021/03/18 05:40:44;;;;;;;15.65;9.60;;;5.60;92.30;;;;;;5052493;28;20037;-80
2021/03/18 05:43:10;;;;;;;16.48;9.13;;;5.60;92.30;;;;;;5034628;28;20531;-80
2021/03/18 05:45:36;;;;;;;18.15;9.63;;;5.70;92.30;;;;;;5033078;28;20065;-80
2021/03/18 05:48:02;;;;;;;17.75;10.38;;;5.70;92.30;;;;;;5047108;28;20025;-79
2021/03/18 05:50:28;;;;;;;19.27;10.85;;;5.70;92.30;;;;;;5046549;28;20021;-80
2021/03/18 05:52:53;;;;;;;18.33;10.48;;;5.70;92.30;;;;;;5071898;28;20025;-79
2021/03/18 05:55:21;;;;;;;21.20;10.93;;;5.70;92.20;;;;;;5067613;28;20039;-80
2021/03/18 05:57:52;;;;;;;16.25;10.00;;;5.80;92.30;;;;;;5072443;28;20048;-79
2021/03/18 06:00:19;;;;;;;18.08;10.35;;;5.80;92.30;;;;;;5067868;28;20049;-80
2021/03/18 06:02:45;;;;;;;17.40;10.73;;;5.80;92.20;;;;;;5071966;28;20056;-80
2021/03/18 06:05:13;;;;;;;15.90;9.95;;;5.90;92.20;;;;;;5060862;28;20512;-79
2021/03/18 06:07:44;;;;;;;18.33;10.30;;;5.90;92.20;;;;;;5030397;28;20056;-80
2021/03/18 06:10:12;;;;;;;14.85;10.25;;;6.00;92.20;;;;;;5042250;28;20389;-80
2021/03/18 06:12:39;;;;;;;16.65;10.27;;;6.00;92.10;;;;;;5071765;28;20036;-80
2021/03/18 06:15:15;;;;;;;17.85;10.65;;;6.10;92.10;;;;;;5065358;28;20054;-80
2021/03/18 06:17:41;;;;;;;18.67;10.48;;;6.10;92.00;;;;;;5071163;28;20029;-81
2021/03/18 06:20:11;;;;;;;17.85;11.43;;;6.20;92.10;;;;;;5056726;28;20405;-80
2021/03/18 06:22:41;;;;;;;16.90;10.60;;;6.20;92.00;;;;;;5052097;28;20095;-81
2021/03/18 06:25:21;;;;;;;16.33;10.90;;;6.30;91.90;;;;;;5051090;28;20446;-80
2021/03/18 06:27:47;;;;;;;20.83;11.48;;;6.30;91.80;;;;;;5051528;28;20032;-80
2021/03/18 06:30:14;;;;;;;19.67;11.80;;;6.30;91.80;;;;;;5053187;28;20481;-81
2021/03/18 06:32:40;;;;;;;16.33;10.90;;;6.30;91.80;;;;;;5069145;28;20078;-80
2021/03/18 06:35:06;;;;;;;19.17;11.45;;;6.40;91.80;;;;;;5063670;28;20477;-80
2021/03/18 06:37:39;;;;;;;16.65;11.32;;;6.40;91.70;;;;;;5071592;28;20032;-80
2021/03/18 06:40:09;;;;;;;20.05;12.30;;;6.40;91.70;;;;;;5065903;28;20041;-80
2021/03/18 06:42:36;;;;;;;19.42;12.10;;;6.50;91.70;;;;;;5051592;28;20381;-80
2021/03/18 06:45:14;;;;;;;18.83;11.68;;;6.50;91.70;;;;;;5051613;28;20032;-80
2021/03/18 06:47:52;;;;;;;17.35;11.55;;;6.60;91.70;;;;;;5052456;28;20078;-73
2021/03/18 06:50:29;;;;;;;17.45;10.25;;;6.60;91.60;;;;;;5045942;28;20574;-76
2021/03/18 06:52:55;;;;;;;16.10;10.38;;;6.70;91.60;;;;;;5050800;28;20060;-78
2021/03/18 06:55:33;;;;;;;14.77;9.60;;;6.70;91.60;;;;;;5051011;28;20048;-72
2021/03/18 06:58:17;;;;;;;14.65;9.85;;;6.80;91.60;;;;;;5072796;28;20090;-76
2021/03/18 07:00:46;;;;;;;14.63;9.85;;;6.80;91.50;;;;;;5056961;28;20056;-76
2021/03/18 07:03:23;;;;;;;18.17;10.80;;;6.80;91.50;;;;;;5054779;28;20409;-75
2021/03/18 07:05:48;;;;;;;14.75;9.90;;;6.80;91.40;;;;;;5053314;28;20025;-75
2021/03/18 07:08:23;;;;;;;17.83;10.77;;;6.80;91.50;;;;;;5053773;28;20032;-76
2021/03/18 07:10:48;;;;;;;15.10;9.27;;;6.90;91.40;;;;;;5053803;28;20057;-76
2021/03/18 07:13:22;;;;;;;17.23;10.20;;;6.90;91.40;;;;;;5069593;28;20064;-75
2021/03/18 07:15:49;;;;;;;15.52;10.10;;;7.00;91.30;;;;;;5061476;28;20435;-76
2021/03/18 07:18:15;;;;;;;17.33;10.30;;;7.00;91.30;;;;;;5070601;28;20036;-76
2021/03/18 07:20:58;;;;;;;13.70;9.10;;;7.00;91.30;;;;;;5052337;28;20397;-75
2021/03/18 07:23:53;;;;;;;15.30;9.88;;;7.00;91.20;;;;;;5064551;28;20029;-77
2021/03/18 07:26:24;;;;;;;13.27;9.52;;;7.00;91.20;;;;;;5047887;28;20120;-76
2021/03/18 07:28:52;;;;;;;16.10;9.40;;;7.10;91.10;;;;;;5050210;28;20116;-76
2021/03/18 07:31:19;;;;;;;15.15;9.48;;;7.10;90.90;;;;;;5064949;28;20036;-76
2021/03/18 07:33:46;;;;;;;15.63;9.02;;;7.10;90.90;;;;;;5064295;28;20025;-77
2021/03/18 07:36:13;;;;;;;15.13;8.63;;;7.10;90.80;;;;;;5053481;28;20635;-76
2021/03/18 07:38:40;;;;;;;14.27;8.15;;;7.10;90.70;;;;;;5037433;28;20033;-76
2021/03/18 07:41:13;;;;;;;12.48;7.68;;;7.20;90.70;;;;;;5046021;28;20025;-78
2021/03/18 07:43:42;;;;;;;9.85;5.80;;;7.20;90.70;;;;;;5048552;28;20104;-73
2021/03/18 07:46:11;;;;;;;9.98;6.35;;;7.20;90.40;;;;;;5045707;28;20029;-74
2021/03/18 07:48:36;;;;;;;11.90;6.80;;;7.10;90.50;;;;;;5040677;28;20029;-74
2021/03/18 07:51:03;;;;;;;12.85;6.50;;;7.10;90.50;;;;;;5047912;28;20041;-74
2021/03/18 07:53:29;;;;;;;9.70;6.70;;;7.00;90.50;;;;;;5045010;28;20105;-74
2021/03/18 07:55:56;;;;;;;11.00;6.45;;;7.10;90.60;;;;;;5046345;28;20032;-74
2021/03/18 07:58:47;;;;;;;15.05;6.30;;;7.10;90.60;;;;;;5052070;28;20509;-75
2021/03/18 08:01:31;;;;;;;10.65;6.88;;;7.20;90.60;;;;;;5046735;28;20440;-75
2021/03/18 08:03:58;;;;;;;10.45;6.07;;;7.20;90.60;;;;;;5044689;28;20040;-74
2021/03/18 08:06:38;;;;;;;10.52;6.07;;;7.30;90.60;;;;;;5067644;28;20029;-75
2021/03/18 08:09:14;;;;;;;11.40;6.40;;;7.40;90.50;;;;;;5036468;28;20067;-75
2021/03/18 08:11:45;;;;;;;10.02;7.20;;;7.40;90.40;;;;;;5065872;28;20036;-75
2021/03/18 08:14:20;;;;;;;11.65;6.95;;;7.40;90.00;;;;;;5077922;28;20025;-75
2021/03/18 08:16:46;;;;;;;13.73;7.13;;;7.40;90.10;;;;;;5068753;28;20020;-75
2021/03/18 08:19:13;;;;;;;11.25;7.80;;;7.50;90.20;;;;;;5085465;28;20032;-75
2021/03/18 08:21:47;;;;;;;12.45;7.38;;;7.40;89.50;;;;;;5052489;28;20021;-74
2021/03/18 08:24:29;;;;;;;15.10;7.75;;;7.50;90.00;;;;;;5032159;28;20095;-74
2021/03/18 08:27:02;;;;;;;10.13;6.85;;;7.50;90.00;;;;;;5051909;28;20056;-74
2021/03/18 08:29:41;;;;;;;11.15;7.10;;;7.40;89.50;;;;;;5060843;28;20531;-75
2021/03/18 08:32:09;;;;;;;12.43;6.28;;;7.40;89.10;;;;;;5065863;28;20066;-75
2021/03/18 08:34:51;;;;;;;11.27;6.82;;;7.40;89.30;;;;;;5033066;28;20048;-75
2021/03/18 08:37:38;;;;;;;9.98;6.60;;;7.40;89.20;;;;;;5053282;28;20029;-75
2021/03/18 08:40:07;;;;;;;10.88;6.80;;;7.40;89.00;;;;;;5026469;28;20045;-76
2021/03/18 08:42:35;;;;;;;8.65;5.80;;;7.40;89.10;;;;;;5052425;28;20120;-75
2021/03/18 08:45:05;;;;;;;10.40;6.05;;;7.50;89.00;;;;;;5044055;28;20168;-75
2021/03/18 08:47:50;;;;;;;11.82;7.22;;;7.60;88.90;;;;;;5052901;28;20385;-75
2021/03/18 08:50:24;;;;;;;12.68;7.20;;;7.60;88.70;;;;;;5036722;28;20044;-75
2021/03/18 08:52:52;;;;;;;12.68;7.40;;;7.60;88.70;;;;;;5051390;28;20029;-75
2021/03/18 08:55:36;;;;;;;10.35;7.07;;;7.70;88.50;;;;;;5056107;28;20041;-75
2021/03/18 08:58:04;;;;;;;13.77;8.15;;;7.70;88.40;;;;;;5056831;28;20059;-75
2021/03/18 09:00:30;;;;;;;14.05;7.70;;;7.80;87.60;;;;;;5051215;28;20052;-75
2021/03/18 09:02:56;;;;;;;14.63;8.40;;;7.80;87.10;;;;;;5049813;28;20528;-75
2021/03/18 09:05:22;;;;;;;12.65;7.82;;;7.80;87.00;;;;;;5056919;28;20060;-76
2021/03/18 09:07:53;;;;;;;12.98;7.55;;;7.90;87.60;;;;;;5062827;28;20516;-77
2021/03/18 09:10:27;;;;;;;11.27;6.50;;;8.00;87.30;;;;;;5055641;28;20036;-73
2021/03/18 09:12:56;;;;;;;7.57;5.28;;;8.10;86.80;;;;;;5039965;28;20079;-73
2021/03/18 09:15:33;;;;;;;10.15;5.90;;;8.20;85.10;;;;;;5051683;28;20032;-74
2021/03/18 09:18:10;;;;;;;8.40;5.70;;;8.20;85.00;;;;;;5050955;28;20029;-73
2021/03/18 09:20:36;;;;;;;11.90;6.28;;;8.20;83.60;;;;;;5056585;28;20044;-73
2021/03/18 09:23:17;;;;;;;11.02;6.47;;;8.30;83.90;;;;;;5051798;28;20028;-72
2021/03/18 09:25:45;;;;;;;11.60;6.93;;;8.40;83.90;;;;;;5050377;28;20025;-72
2021/03/18 09:28:11;;;;;;;12.05;7.00;;;8.40;83.40;;;;;;5051076;28;20120;-72
2021/03/18 09:30:43;;;;;;;10.75;6.72;;;8.50;83.00;;;;;;5042792;28;20116;-72
2021/03/18 09:33:26;;;;;;;11.50;7.32;;;8.50;83.40;;;;;;5040120;28;20021;-73
2021/03/18 09:35:54;;;;;;;13.05;6.68;;;8.60;83.20;;;;;;5050980;28;20473;-73
2021/03/18 09:38:26;;;;;;;10.48;5.80;;;8.70;83.70;;;;;;5051083;28;20083;-73
2021/03/18 09:40:53;;;;;;;10.63;6.22;;;8.80;83.50;;;;;;5059196;28;20431;-73
2021/03/18 09:43:20;;;;;;;9.50;6.03;;;8.90;83.10;;;;;;5054768;28;20037;-73
2021/03/18 09:45:52;;;;;;;10.50;6.15;;;8.90;82.70;;;;;;5058457;28;20087;-73
2021/03/18 09:48:26;;;;;;;11.10;6.10;;;9.10;83.20;;;;;;5047038;28;20032;-73
2021/03/18 09:50:53;;;;;;;8.85;5.97;;;9.20;83.20;;;;;;5050350;28;20037;-73
2021/03/18 09:53:19;;;;;;;11.15;6.22;;;9.30;82.60;;;;;;5051062;28;20032;-76
2021/03/18 09:55:45;;;;;;;10.15;6.15;;;9.40;82.30;;;;;;5051791;28;20382;-72
2021/03/18 09:58:13;;;;;;;9.20;5.72;;;9.50;81.50;;;;;;5050995;28;20052;-76
2021/03/18 10:00:39;;;;;;;9.60;6.10;;;9.60;81.50;;;;;;5049499;28;20041;-71
2021/03/18 10:03:06;;;;;;;10.07;6.53;;;9.60;80.50;;;;;;5050835;28;20049;-70
2021/03/18 10:05:33;;;;;;;8.70;5.82;;;9.60;80.70;;;;;;5045334;28;20367;-72
2021/03/18 10:07:58;;;;;;;11.48;6.32;;;9.60;80.90;;;;;;5044124;28;20112;-72
2021/03/18 10:10:24;;;;;;;10.73;6.15;;;9.60;81.30;;;;;;5050946;28;20103;-72
2021/03/18 10:12:54;;;;;;;8.95;5.00;;;9.60;80.80;;;;;;5038708;28;20497;-71
2021/03/18 10:15:20;;;;;;;9.35;5.43;;;9.60;80.50;;;;;;5050328;28;20032;-71
2021/03/18 10:17:47;;;;;;;7.07;4.75;;;9.40;78.50;;;;;;5050937;28;20025;-71
2021/03/18 10:20:33;;;;;;;8.43;5.10;;;9.40;78.50;;;;;;5049615;28;20044;-71
2021/03/18 10:23:09;;;;;;;8.40;5.25;;;9.30;78.70;;;;;;5048813;28;20026;-71
2021/03/18 10:25:38;;;;;;;8.30;5.60;;;9.20;79.50;;;;;;5051265;28;20107;-71
2021/03/18 10:28:12;;;;;;;10.45;7.03;;;9.20;80.00;;;;;;5050658;28;20029;-71
2021/03/18 10:30:40;;;;;;;9.18;5.38;;;9.20;80.20;;;;;;5050335;28;20109;-71
2021/03/18 10:33:15;;;;;;;10.35;5.53;;;9.20;80.30;;;;;;5038045;28;20104;-71
2021/03/18 10:35:56;;;;;;;8.02;4.75;;;9.20;80.10;;;;;;5054607;28;20029;-71
2021/03/18 10:38:31;;;;;;;9.23;6.43;;;9.30;80.30;;;;;;5054918;28;20106;-71
2021/03/18 10:40:58;;;;;;;10.45;7.30;;;9.30;80.40;;;;;;5052730;28;20405;-72
2021/03/18 10:43:27;;;;;;;10.50;7.25;;;9.40;80.50;;;;;;5054520;28;20021;-71
2021/03/18 10:45:59;;;;;;;8.50;6.00;;;9.40;80.20;;;;;;5039624;28;20092;-72
2021/03/18 10:48:27;;;;;;;8.07;5.75;;;9.50;79.60;;;;;;5054655;28;20025;-71
2021/03/18 10:50:53;;;;;;;8.27;4.90;;;9.50;78.80;;;;;;5054244;28;20025;-72
2021/03/18 10:53:21;;;;;;;8.85;5.95;;;9.60;78.10;;;;;;5055048;28;20032;-72
2021/03/18 10:55:53;;;;;;;9.55;5.60;;;9.70;77.90;;;;;;5054205;28;20025;-72
2021/03/18 10:58:21;;;;;;;8.95;5.30;;;9.70;76.90;;;;;;5052450;28;20586;-72
2021/03/18 11:00:48;;;;;;;8.07;5.03;;;9.70;76.50;;;;;;5051603;28;20125;-72
2021/03/18 11:03:17;;;;;;;9.57;4.78;;;9.80;75.70;;;;;;5050837;28;20028;-72
2021/03/18 11:05:45;;;;;;;8.00;4.68;;;9.80;74.80;;;;;;5054333;28;20413;-72
2021/03/18 11:08:12;;;;;;;8.05;4.70;;;9.80;74.60;;;;;;5050862;28;20484;-72
2021/03/18 11:10:40;;;;;;;14.82;5.95;;;9.80;73.80;;;;;;5049597;28;20032;-72
2021/03/18 11:13:13;;;;;;;8.25;4.43;;;9.80;74.10;;;;;;5064692;28;20124;-72
2021/03/18 11:15:47;;;;;;;8.75;5.00;;;9.90;73.30;;;;;;5054054;28;20036;-70
2021/03/18 11:18:15;;;;;;;7.07;4.53;;;9.90;71.40;;;;;;5053305;28;20541;-71
2021/03/18 11:20:43;;;;;;;6.10;4.13;;;9.90;72.10;;;;;;5054807;28;20160;-70
2021/03/18 11:23:11;;;;;;;7.63;4.20;;;9.80;69.60;;;;;;5053932;28;20462;-69
2021/03/18 11:25:36;;;;;;;6.57;4.28;;;9.80;70.70;;;;;;5054043;28;20037;-72
2021/03/18 11:28:02;;;;;;;7.60;5.30;;;9.80;70.50;;;;;;5052069;28;20385;-70
2021/03/18 11:30:36;;;;;;;8.50;5.03;;;9.80;71.40;;;;;;5047645;28;20062;-70
2021/03/18 11:33:11;;;;;;;9.10;6.00;;;9.90;71.60;;;;;;5050362;28;20528;-70
2021/03/18 11:35:38;;;;;;;7.75;4.63;;;10.00;71.00;;;;;;5054227;28;20098;-69
2021/03/18 11:38:03;;;;;;;7.28;5.00;;;9.90;70.50;;;;;;5053524;28;20036;-70
2021/03/18 11:40:29;;;;;;;7.90;4.93;;;10.00;71.00;;;;;;5044476;28;20421;-70
2021/03/18 11:42:55;;;;;;;8.00;4.63;;;10.00;71.30;;;;;;5041483;28;20079;-70
2021/03/18 11:45:21;;;;;;;6.88;4.30;;;10.00;71.10;;;;;;5053904;28;20036;-71
2021/03/18 11:47:47;;;;;;;6.65;4.35;;;10.00;70.80;;;;;;5052547;28;20035;-71
2021/03/18 11:50:12;;;;;;;6.28;3.88;;;10.20;70.70;;;;;;5062533;28;20396;-70
2021/03/18 11:52:38;;;;;;;5.93;4.63;;;10.30;69.90;;;;;;5067354;28;20033;-70
2021/03/18 11:55:04;;;;;;;8.18;5.22;;;10.30;68.80;;;;;;5052671;28;20032;-70
2021/03/18 11:57:30;;;;;;;6.95;3.95;;;10.30;69.00;;;;;;5052885;28;20061;-70
2021/03/18 11:59:55;;;;;;;6.45;3.53;;;10.40;69.10;;;;;;5046182;28;20080;-70
2021/03/18 12:02:21;;;;;;;7.22;3.80;;;10.40;69.40;;;;;;5035390;28;20037;-70
2021/03/18 12:04:46;;;;;;;6.30;3.90;;;10.50;68.70;;;;;;5045106;28;20043;-70
2021/03/18 12:07:12;;;;;;;7.22;4.13;;;10.50;69.10;;;;;;5053192;28;20018;-71
2021/03/18 12:09:37;;;;;;;6.13;3.83;;;10.50;69.00;;;;;;5053719;28;20036;-71
2021/03/18 12:12:04;;;;;;;7.90;4.38;;;10.60;67.70;;;;;;5053103;28;20040;-70
2021/03/18 12:14:30;;;;;;;5.97;4.00;;;10.40;66.70;;;;;;5032739;28;20495;-71
2021/03/18 12:16:55;;;;;;;6.70;4.43;;;10.50;67.80;;;;;;5053262;28;20056;-70
2021/03/18 12:19:21;;;;;;;5.68;3.67;;;10.50;68.00;;;;;;5037655;28;20067;-69
2021/03/18 12:21:47;;;;;;;7.72;4.60;;;10.60;67.50;;;;;;5033877;28;20069;-70
2021/03/18 12:24:12;;;;;;;8.15;4.28;;;10.60;66.40;;;;;;5052744;28;20064;-70
2021/03/18 12:26:41;;;;;;;6.10;4.00;;;10.60;65.80;;;;;;5053723;28;20458;-70
2021/03/18 12:29:07;;;;;;;7.68;3.85;;;10.70;66.40;;;;;;5052582;28;20032;-70
2021/03/18 12:31:33;;;;;;;5.65;3.88;;;10.80;66.80;;;;;;5051989;28;20028;-70
2021/03/18 12:33:58;;;;;;;7.43;3.85;;;10.90;66.00;;;;;;5067574;28;20083;-70
2021/03/18 12:36:24;;;;;;;8.85;4.63;;;10.90;65.90;;;;;;5051024;28;20393;-70
2021/03/18 12:38:50;;;;;;;7.38;3.47;;;11.00;65.90;;;;;;5052136;28;20036;-70
2021/03/18 12:41:16;;;;;;;6.38;3.78;;;11.10;65.60;;;;;;5049968;28;20037;-70
2021/03/18 12:43:42;;;;;;;7.18;4.47;;;11.20;64.60;;;;;;5052156;28;20551;-71
2021/03/18 12:46:07;;;;;;;6.63;4.20;;;11.20;63.30;;;;;;5052903;28;20033;-69
2021/03/18 12:48:33;;;;;;;6.63;3.60;;;11.30;64.40;;;;;;5051954;28;20091;-71
2021/03/18 12:50:59;;;;;;;4.65;3.10;;;11.40;63.80;;;;;;5052912;28;20031;-72
2021/03/18 12:53:26;;;;;;;5.47;3.10;;;11.50;63.10;;;;;;5052238;28;20112;-69
2021/03/18 12:55:51;;;;;;;6.35;3.88;;;11.50;63.40;;;;;;5052491;28;20032;-71
2021/03/18 12:58:17;;;;;;;4.80;3.15;;;11.60;62.60;;;;;;5051839;28;20045;-71
2021/03/18 13:00:44;;;;;;;5.72;3.42;;;11.70;62.70;;;;;;5039875;28;20029;-72